Time;durP1;ratioP1;P1;durP2;ratioP2;P2;SDS_P1;SDS_P2;PMS_P1;PMS_P2;Temp;Humidity;BMP_temperature;BMP_pressure;BME280_temperature;BME280_humidity;BME280_pressure;Samples;Min_cycle;Max_cycle;Signal;HPM_P1;HPM_P2
2021/05/16 00:00:07;;;;;;;7.72;4.03;;;5.90;99.90;;;;;;4970355;28;20038;-65
2021/05/16 00:02:33;;;;;;;7.22;4.18;;;5.90;99.90;;;;;;4970398;28;20072;-65
2021/05/16 00:04:59;;;;;;;6.75;4.55;;;6.00;99.90;;;;;;4971483;28;20035;-66
2021/05/16 00:07:24;;;;;;;6.20;3.95;;;6.10;99.90;;;;;;4969738;28;20119;-65
2021/05/16 00:09:50;;;;;;;6.65;3.90;;;6.20;99.90;;;;;;4969384;28;20561;-65
2021/05/16 00:12:16;;;;;;;6.97;4.03;;;6.20;99.90;;;;;;4969026;28;20089;-65
2021/05/16 00:14:42;;;;;;;5.55;4.10;;;6.30;99.90;;;;;;4968169;28;20038;-66
2021/05/16 00:17:08;;;;;;;4.82;3.28;;;6.30;99.90;;;;;;4969358;28;20049;-65
2021/05/16 00:19:34;;;;;;;8.60;4.10;;;6.30;99.90;;;;;;4966160;28;20773;-65
2021/05/16 00:22:01;;;;;;;5.93;4.30;;;6.40;99.90;;;;;;4969956;28;20038;-65
2021/05/16 00:24:27;;;;;;;6.25;4.00;;;6.40;99.90;;;;;;4968322;28;20051;-65
2021/05/16 00:26:53;;;;;;;5.15;3.50;;;6.50;99.90;;;;;;4968542;28;20061;-65
2021/05/16 00:29:19;;;;;;;5.70;4.32;;;6.50;99.90;;;;;;4968546;28;20034;-65
2021/05/16 00:31:45;;;;;;;9.60;6.70;;;6.50;99.90;;;;;;4970472;28;20050;-65
2021/05/16 00:34:11;;;;;;;8.32;6.10;;;6.60;99.90;;;;;;4968130;28;20145;-66
2021/05/16 00:36:37;;;;;;;10.65;6.32;;;6.60;99.90;;;;;;4969497;28;20030;-65
2021/05/16 00:39:04;;;;;;;8.20;6.22;;;6.60;99.90;;;;;;4967250;28;20488;-65
2021/05/16 00:41:31;;;;;;;9.68;7.47;;;6.70;99.90;;;;;;4968687;28;20454;-65
2021/05/16 00:43:57;;;;;;;10.05;7.32;;;6.80;99.90;;;;;;4966341;28;20399;-65
2021/05/16 00:46:23;;;;;;;12.05;6.97;;;6.80;99.90;;;;;;4970223;28;20137;-65
2021/05/16 00:48:49;;;;;;;11.00;7.13;;;6.80;99.90;;;;;;4968325;28;20033;-65
2021/05/16 00:51:15;;;;;;;14.45;9.75;;;6.80;99.90;;;;;;4966948;28;20637;-65
2021/05/16 00:53:41;;;;;;;14.10;10.30;;;6.80;99.90;;;;;;4967449;28;20044;-65
2021/05/16 00:56:07;;;;;;;14.68;9.57;;;6.80;99.90;;;;;;4970109;28;20137;-65
2021/05/16 00:58:33;;;;;;;12.57;9.55;;;6.90;99.90;;;;;;4969497;28;20038;-65
2021/05/16 01:01:00;;;;;;;17.23;11.65;;;6.90;99.90;;;;;;4967738;28;20039;-65
2021/05/16 01:03:31;;;;;;;16.02;11.27;;;6.90;99.90;;;;;;4967443;28;20038;-66
2021/05/16 01:05:57;;;;;;;15.88;10.75;;;7.00;99.90;;;;;;4967725;28;20037;-65
2021/05/16 01:08:22;;;;;;;15.05;10.85;;;7.10;99.90;;;;;;4968737;28;20337;-65
2021/05/16 01:10:49;;;;;;;15.25;10.07;;;7.10;99.90;;;;;;4967971;28;20066;-64
2021/05/16 01:13:16;;;;;;;17.60;11.10;;;7.10;99.90;;;;;;4964877;28;20042;-65
2021/05/16 01:15:44;;;;;;;17.40;10.50;;;7.00;99.90;;;;;;4966012;28;20034;-65
2021/05/16 01:18:10;;;;;;;14.55;9.52;;;7.00;99.90;;;;;;4969417;28;20066;-65
2021/05/16 01:20:40;;;;;;;15.13;9.30;;;7.00;99.90;;;;;;4967933;28;20027;-66
2021/05/16 01:23:25;;;;;;;12.77;8.30;;;7.00;99.90;;;;;;4968274;28;20151;-66
2021/05/16 01:25:51;;;;;;;12.80;8.70;;;7.10;99.90;;;;;;4968458;28;20507;-66
2021/05/16 01:28:19;;;;;;;11.48;7.80;;;7.10;99.90;;;;;;4965873;28;20041;-65
2021/05/16 01:30:48;;;;;;;17.55;8.70;;;7.20;99.90;;;;;;4967956;28;20026;-65
2021/05/16 01:33:16;;;;;;;13.52;8.35;;;7.20;99.90;;;;;;4967011;28;20038;-64
2021/05/16 01:35:43;;;;;;;12.60;7.93;;;7.20;99.90;;;;;;4969515;28;20206;-65
2021/05/16 01:38:09;;;;;;;11.35;8.15;;;7.30;99.90;;;;;;4967552;28;20038;-65
2021/05/16 01:40:38;;;;;;;10.75;7.75;;;7.30;99.90;;;;;;4967986;28;20025;-65
2021/05/16 01:43:10;;;;;;;12.27;7.88;;;7.20;99.90;;;;;;4966670;28;20381;-65
2021/05/16 01:45:36;;;;;;;14.63;7.30;;;7.20;99.90;;;;;;4966875;28;20034;-65
2021/05/16 01:48:02;;;;;;;13.82;7.65;;;7.30;99.90;;;;;;4968162;28;20459;-65
2021/05/16 01:50:30;;;;;;;12.85;7.38;;;7.30;99.90;;;;;;4965529;28;20034;-65
2021/05/16 01:52:57;;;;;;;13.02;7.82;;;7.30;99.90;;;;;;4969922;28;20920;-65
2021/05/16 01:55:23;;;;;;;12.02;7.82;;;7.40;99.90;;;;;;4968275;28;20050;-65
2021/05/16 01:57:49;;;;;;;12.50;7.82;;;7.40;99.90;;;;;;4967787;28;20039;-65
2021/05/16 02:00:31;;;;;;;12.20;7.93;;;7.40;99.90;;;;;;4966169;28;20434;-65
2021/05/16 02:02:58;;;;;;;10.55;6.93;;;7.40;99.90;;;;;;4964145;28;20049;-65
2021/05/16 02:05:24;;;;;;;10.80;6.68;;;7.40;99.90;;;;;;4966857;28;20097;-64
2021/05/16 02:07:53;;;;;;;9.38;6.68;;;7.40;99.90;;;;;;4966258;28;20678;-64
2021/05/16 02:10:21;;;;;;;11.50;7.30;;;7.40;99.90;;;;;;4967783;28;20093;-64
2021/05/16 02:12:47;;;;;;;15.32;7.20;;;7.50;99.90;;;;;;4967231;28;20135;-64
2021/05/16 02:15:14;;;;;;;8.40;6.43;;;7.50;99.90;;;;;;4967185;28;20034;-65
2021/05/16 02:17:41;;;;;;;8.73;6.25;;;7.50;99.90;;;;;;4965561;28;20133;-65
2021/05/16 02:20:14;;;;;;;12.55;6.63;;;7.60;99.90;;;;;;4968106;28;20495;-64
2021/05/16 02:22:41;;;;;;;10.52;5.85;;;7.60;99.90;;;;;;4965267;28;20065;-64
2021/05/16 02:25:08;;;;;;;12.05;6.75;;;7.60;99.90;;;;;;4964677;28;20035;-64
2021/05/16 02:27:35;;;;;;;9.65;6.90;;;7.60;99.90;;;;;;4967220;28;20054;-64
2021/05/16 02:30:02;;;;;;;8.25;5.68;;;7.60;99.90;;;;;;4968072;28;20069;-65
2021/05/16 02:32:28;;;;;;;10.18;5.82;;;7.60;99.90;;;;;;4966995;28;20093;-65
2021/05/16 02:34:54;;;;;;;7.50;5.55;;;7.60;99.90;;;;;;4966441;28;20041;-64
2021/05/16 02:37:20;;;;;;;10.05;6.53;;;7.70;99.90;;;;;;4967036;28;20754;-64
2021/05/16 02:39:45;;;;;;;9.30;5.88;;;7.70;99.90;;;;;;4967406;28;20057;-64
2021/05/16 02:42:11;;;;;;;9.93;6.13;;;7.70;99.90;;;;;;4967211;28;20045;-65
2021/05/16 02:44:37;;;;;;;8.95;6.15;;;7.70;99.90;;;;;;4966187;28;20141;-65
2021/05/16 02:47:03;;;;;;;10.95;6.72;;;7.60;99.90;;;;;;4967319;28;20042;-65
2021/05/16 02:49:29;;;;;;;9.32;5.97;;;7.70;99.90;;;;;;4966060;28;20114;-64
2021/05/16 02:51:56;;;;;;;11.07;6.50;;;7.70;99.90;;;;;;4968164;28;20029;-64
2021/05/16 02:54:23;;;;;;;9.48;6.07;;;7.80;99.90;;;;;;4966493;28;20035;-65
2021/05/16 02:56:49;;;;;;;8.55;6.38;;;7.80;99.90;;;;;;4966249;28;20058;-65
2021/05/16 02:59:15;;;;;;;9.98;5.88;;;7.80;99.90;;;;;;4966968;28;20062;-65
2021/05/16 03:01:41;;;;;;;9.60;6.20;;;7.80;99.90;;;;;;4966194;28;20117;-65
2021/05/16 03:04:07;;;;;;;8.82;6.18;;;7.80;99.90;;;;;;4967360;28;20233;-65
2021/05/16 03:06:33;;;;;;;9.88;6.13;;;7.90;99.90;;;;;;4997250;28;20248;-65
2021/05/16 03:08:59;;;;;;;12.50;7.35;;;7.90;99.90;;;;;;4970076;28;20269;-65
2021/05/16 03:11:25;;;;;;;9.35;5.88;;;7.90;99.90;;;;;;4969674;28;20478;-65
2021/05/16 03:13:50;;;;;;;11.70;6.97;;;7.90;99.90;;;;;;4971962;28;20034;-65
2021/05/16 03:16:16;;;;;;;8.55;5.78;;;7.90;99.90;;;;;;4972079;28;20066;-65
2021/05/16 03:18:42;;;;;;;12.70;6.60;;;8.00;99.90;;;;;;4970518;28;20067;-65
2021/05/16 03:21:08;;;;;;;10.93;6.20;;;7.90;99.90;;;;;;4970900;28;20802;-65
2021/05/16 03:23:34;;;;;;;9.93;5.63;;;8.00;99.90;;;;;;4971440;28;20082;-65
2021/05/16 03:26:01;;;;;;;9.48;6.13;;;8.00;99.90;;;;;;4970633;28;20035;-65
2021/05/16 03:28:30;;;;;;;8.15;5.78;;;8.00;99.90;;;;;;5002925;28;20465;-65
2021/05/16 03:30:57;;;;;;;8.20;6.03;;;8.00;99.90;;;;;;4970119;28;20026;-64
2021/05/16 03:33:23;;;;;;;12.48;5.90;;;8.00;99.90;;;;;;4969461;28;20081;-65
2021/05/16 03:35:50;;;;;;;11.77;6.72;;;8.00;99.90;;;;;;4970369;28;20417;-65
2021/05/16 03:38:16;;;;;;;8.35;5.75;;;8.00;99.90;;;;;;4969782;28;20122;-65
2021/05/16 03:40:42;;;;;;;8.18;5.85;;;8.10;99.90;;;;;;4970584;28;20453;-65
2021/05/16 03:43:08;;;;;;;9.07;6.60;;;8.10;99.90;;;;;;4968637;28;20026;-64
2021/05/16 03:45:34;;;;;;;9.60;5.53;;;8.10;99.90;;;;;;4970761;28;20034;-64
2021/05/16 03:48:01;;;;;;;9.52;6.10;;;8.10;99.90;;;;;;4970883;28;20034;-65
2021/05/16 03:50:27;;;;;;;8.90;5.80;;;8.10;99.90;;;;;;4967358;28;20049;-65
2021/05/16 03:52:53;;;;;;;6.72;5.35;;;8.10;99.90;;;;;;4968304;28;20031;-65
2021/05/16 03:55:20;;;;;;;7.82;5.35;;;8.10;99.90;;;;;;4969124;28;20113;-64
2021/05/16 03:57:49;;;;;;;11.05;6.28;;;8.20;99.90;;;;;;4970870;28;20093;-65
2021/05/16 04:00:16;;;;;;;10.10;5.38;;;8.20;99.90;;;;;;4970667;28;20141;-65
2021/05/16 04:02:42;;;;;;;11.13;6.18;;;8.20;99.90;;;;;;4968411;28;20053;-65
2021/05/16 04:05:08;;;;;;;7.80;5.95;;;8.30;99.90;;;;;;4971021;28;20031;-65
2021/05/16 04:07:34;;;;;;;9.48;6.32;;;8.30;99.90;;;;;;4969031;28;20030;-65
2021/05/16 04:10:00;;;;;;;11.98;5.88;;;8.30;99.90;;;;;;4970098;28;20105;-65
2021/05/16 04:12:46;;;;;;;9.90;6.32;;;8.30;99.90;;;;;;4969300;28;20441;-65
2021/05/16 04:15:32;;;;;;;10.10;6.13;;;8.40;99.90;;;;;;4969978;28;20117;-65
2021/05/16 04:17:58;;;;;;;10.00;6.07;;;8.30;99.90;;;;;;4968574;28;20038;-65
2021/05/16 04:20:44;;;;;;;9.20;6.32;;;8.40;99.90;;;;;;4970426;28;20470;-65
2021/05/16 04:23:10;;;;;;;14.98;6.25;;;8.50;99.90;;;;;;4967541;28;20046;-65
2021/05/16 04:25:36;;;;;;;11.57;6.88;;;8.40;99.90;;;;;;4970825;28;20065;-65
2021/05/16 04:28:01;;;;;;;10.70;6.38;;;8.40;99.90;;;;;;4968379;28;20046;-65
2021/05/16 04:30:28;;;;;;;10.30;6.68;;;8.40;99.90;;;;;;4969062;28;20027;-65
2021/05/16 04:32:53;;;;;;;9.02;6.28;;;8.50;99.90;;;;;;4970905;28;20386;-66
2021/05/16 04:35:19;;;;;;;9.80;6.75;;;8.50;99.90;;;;;;4967335;28;20023;-65
2021/05/16 04:37:45;;;;;;;8.95;6.10;;;8.50;99.90;;;;;;4969038;28;20043;-65
2021/05/16 04:40:11;;;;;;;11.40;7.60;;;8.60;99.90;;;;;;4969566;28;20073;-65
2021/05/16 04:42:37;;;;;;;10.00;6.72;;;8.70;99.90;;;;;;4967698;28;20034;-65
2021/05/16 04:45:05;;;;;;;10.50;7.28;;;8.80;99.90;;;;;;4970782;28;20462;-65
2021/05/16 04:47:30;;;;;;;9.63;7.07;;;8.90;99.90;;;;;;4968145;28;20061;-65
2021/05/16 04:49:56;;;;;;;12.40;6.88;;;9.00;99.90;;;;;;4967193;28;20035;-65
2021/05/16 04:52:22;;;;;;;10.48;7.20;;;9.10;99.90;;;;;;4968761;28;20461;-65
2021/05/16 04:54:48;;;;;;;12.15;7.07;;;9.10;99.90;;;;;;4967891;28;20086;-65
2021/05/16 04:57:14;;;;;;;14.23;8.32;;;9.20;99.90;;;;;;4966510;28;20045;-65
2021/05/16 04:59:39;;;;;;;11.80;8.45;;;9.20;99.90;;;;;;4968812;28;20042;-65
2021/05/16 05:02:07;;;;;;;12.15;7.70;;;9.20;99.90;;;;;;4968547;28;20035;-65
2021/05/16 05:04:37;;;;;;;11.63;8.35;;;9.30;99.90;;;;;;4967974;28;20076;-65
2021/05/16 05:07:06;;;;;;;12.43;8.65;;;9.30;99.90;;;;;;4967990;28;20109;-65
2021/05/16 05:09:38;;;;;;;13.98;9.80;;;9.40;99.90;;;;;;4969465;28;20025;-65
2021/05/16 05:12:06;;;;;;;14.90;9.40;;;9.30;99.90;;;;;;4968004;28;20132;-65
2021/05/16 05:14:33;;;;;;;18.10;10.38;;;9.40;99.90;;;;;;4968263;28;20050;-65
2021/05/16 05:16:59;;;;;;;16.27;9.52;;;9.40;99.90;;;;;;4966313;28;20030;-65
2021/05/16 05:19:25;;;;;;;16.13;9.05;;;9.50;99.90;;;;;;4968837;28;20038;-65
2021/05/16 05:21:51;;;;;;;15.88;10.15;;;9.50;99.90;;;;;;4967736;28;20081;-65
2021/05/16 05:24:17;;;;;;;16.35;10.20;;;9.60;99.90;;;;;;4966037;28;20058;-65
2021/05/16 05:26:43;;;;;;;17.15;10.48;;;9.60;99.90;;;;;;4998403;28;20038;-65
2021/05/16 05:29:08;;;;;;;14.50;9.80;;;9.70;99.90;;;;;;4966746;28;20035;-65
2021/05/16 05:31:34;;;;;;;17.20;9.98;;;9.70;99.90;;;;;;4968058;28;20105;-65
2021/05/16 05:34:00;;;;;;;17.48;10.57;;;9.90;99.90;;;;;;4969895;28;20074;-65
2021/05/16 05:36:29;;;;;;;17.65;10.68;;;9.90;99.90;;;;;;4966879;28;20116;-66
2021/05/16 05:38:56;;;;;;;17.83;11.57;;;10.00;99.90;;;;;;4967771;28;20050;-65
2021/05/16 05:41:22;;;;;;;15.40;10.13;;;10.10;99.90;;;;;;4962804;28;20030;-66
2021/05/16 05:43:48;;;;;;;17.55;11.63;;;10.30;99.90;;;;;;4965925;28;20077;-66
2021/05/16 05:46:13;;;;;;;16.83;11.05;;;10.40;99.90;;;;;;4965498;28;20519;-68
2021/05/16 05:48:39;;;;;;;16.52;10.73;;;10.40;99.90;;;;;;4968023;28;20026;-64
2021/05/16 05:51:05;;;;;;;18.23;12.10;;;10.30;99.90;;;;;;4966505;28;20180;-65
2021/05/16 05:53:31;;;;;;;16.65;10.75;;;10.30;99.90;;;;;;4965634;28;20026;-65
2021/05/16 05:55:57;;;;;;;15.98;10.38;;;10.40;99.90;;;;;;4966127;28;20587;-65
2021/05/16 05:58:23;;;;;;;18.40;11.25;;;10.40;99.90;;;;;;4964346;28;20089;-64
2021/05/16 06:00:48;;;;;;;14.80;10.85;;;10.40;99.90;;;;;;4962581;28;20486;-65
2021/05/16 06:03:14;;;;;;;21.23;12.50;;;10.50;99.90;;;;;;4965662;28;20034;-66
2021/05/16 06:05:40;;;;;;;18.05;10.80;;;10.70;99.90;;;;;;4964066;28;20026;-65
2021/05/16 06:08:06;;;;;;;18.52;11.95;;;10.80;99.90;;;;;;4966416;28;20117;-65
2021/05/16 06:10:32;;;;;;;20.10;11.80;;;10.80;99.90;;;;;;4967798;28;20140;-64
2021/05/16 06:12:57;;;;;;;14.88;10.07;;;10.90;99.90;;;;;;4962958;28;20031;-65
2021/05/16 06:15:24;;;;;;;15.13;10.50;;;10.90;99.90;;;;;;4963413;28;20026;-65
2021/05/16 06:17:51;;;;;;;18.02;11.65;;;11.20;99.90;;;;;;4958049;28;20473;-65
2021/05/16 06:20:17;;;;;;;14.85;10.43;;;11.20;99.90;;;;;;4964865;28;20353;-65
2021/05/16 06:22:43;;;;;;;16.00;11.35;;;11.40;99.90;;;;;;4963101;28;20089;-65
2021/05/16 06:25:09;;;;;;;15.20;10.93;;;11.50;99.90;;;;;;4966125;28;20545;-64
2021/05/16 06:27:35;;;;;;;16.15;11.00;;;11.60;99.90;;;;;;4966222;28;20061;-65
2021/05/16 06:30:01;;;;;;;17.45;11.48;;;11.60;99.90;;;;;;4965342;28;20479;-65
2021/05/16 06:32:27;;;;;;;13.95;10.77;;;11.50;99.90;;;;;;4967470;28;20108;-65
2021/05/16 06:34:53;;;;;;;15.35;10.55;;;11.50;99.90;;;;;;4964773;28;20038;-65
2021/05/16 06:37:19;;;;;;;17.83;11.63;;;11.40;99.90;;;;;;4966655;28;20472;-64
2021/05/16 06:39:45;;;;;;;16.48;11.25;;;11.30;99.90;;;;;;4962766;28;20042;-65
2021/05/16 06:42:11;;;;;;;17.05;11.45;;;11.40;99.90;;;;;;4965241;28;20030;-64
2021/05/16 06:44:36;;;;;;;20.98;13.30;;;11.40;99.90;;;;;;4965842;28;20038;-65
2021/05/16 06:47:02;;;;;;;18.38;12.30;;;11.60;99.90;;;;;;4965189;28;20114;-65
2021/05/16 06:49:28;;;;;;;14.82;10.55;;;11.80;99.90;;;;;;4960878;28;20053;-64
2021/05/16 06:51:54;;;;;;;14.63;10.15;;;11.80;99.90;;;;;;4961954;28;20038;-65
2021/05/16 06:54:20;;;;;;;17.13;10.27;;;11.60;99.90;;;;;;4963432;28;20073;-64
2021/05/16 06:56:46;;;;;;;15.20;11.35;;;11.60;99.90;;;;;;4965957;28;20030;-65
2021/05/16 06:59:11;;;;;;;18.85;13.00;;;11.70;99.90;;;;;;4960396;28;20038;-65
2021/05/16 07:01:37;;;;;;;20.17;12.35;;;11.70;99.90;;;;;;4963107;28;20031;-65
2021/05/16 07:04:03;;;;;;;15.98;11.30;;;11.80;99.90;;;;;;4964596;28;20462;-63
2021/05/16 07:06:29;;;;;;;14.68;10.93;;;11.80;99.90;;;;;;4966646;28;20031;-63
2021/05/16 07:08:55;;;;;;;14.15;9.93;;;11.90;99.90;;;;;;4964007;28;20034;-63
2021/05/16 07:11:20;;;;;;;15.88;10.57;;;11.80;99.90;;;;;;4962742;28;20032;-63
2021/05/16 07:13:46;;;;;;;16.50;10.27;;;11.80;99.90;;;;;;4963769;28;20082;-63
2021/05/16 07:16:12;;;;;;;14.63;10.10;;;11.80;99.90;;;;;;4961953;28;20034;-63
2021/05/16 07:18:38;;;;;;;14.70;10.55;;;12.00;99.90;;;;;;4963446;28;20636;-66
2021/05/16 07:21:04;;;;;;;18.27;10.35;;;12.00;99.90;;;;;;4962799;28;20047;-65
2021/05/16 07:23:30;;;;;;;15.60;10.15;;;12.00;99.90;;;;;;4963191;28;20055;-65
2021/05/16 07:25:58;;;;;;;15.23;9.23;;;12.10;99.90;;;;;;4964653;28;20037;-65
2021/05/16 07:28:24;;;;;;;14.38;10.60;;;12.30;99.90;;;;;;4965292;28;20041;-64
2021/05/16 07:30:50;;;;;;;13.38;9.88;;;12.30;99.90;;;;;;4962817;28;20420;-65
2021/05/16 07:33:16;;;;;;;14.85;9.20;;;12.20;99.90;;;;;;4964563;28;20034;-65
2021/05/16 07:35:42;;;;;;;13.48;9.75;;;12.30;99.90;;;;;;4961619;28;20037;-65
2021/05/16 07:38:09;;;;;;;19.27;10.50;;;12.20;99.90;;;;;;4965224;28;20053;-65
2021/05/16 07:40:37;;;;;;;14.57;9.85;;;12.30;99.90;;;;;;4964243;28;20444;-65
2021/05/16 07:43:02;;;;;;;11.80;9.00;;;12.50;99.90;;;;;;4961363;28;20350;-65
2021/05/16 07:45:28;;;;;;;13.45;9.30;;;12.60;99.90;;;;;;4962646;28;20115;-65
2021/05/16 07:47:54;;;;;;;13.43;8.95;;;12.80;99.90;;;;;;4962989;28;20157;-65
2021/05/16 07:50:20;;;;;;;12.52;7.78;;;13.10;99.90;;;;;;4962794;28;20137;-65
2021/05/16 07:52:45;;;;;;;12.77;9.20;;;13.20;99.90;;;;;;4957925;28;20121;-64
2021/05/16 07:55:12;;;;;;;14.57;9.00;;;13.30;99.90;;;;;;4965597;28;20082;-65
2021/05/16 07:57:37;;;;;;;12.90;8.55;;;13.50;99.90;;;;;;4967070;28;20039;-65
2021/05/16 08:00:06;;;;;;;10.43;8.13;;;13.50;99.90;;;;;;4967863;28;20027;-65
2021/05/16 08:02:32;;;;;;;13.27;8.40;;;13.70;99.90;;;;;;4967476;28;20038;-65
2021/05/16 08:04:58;;;;;;;16.20;8.93;;;14.10;99.90;;;;;;4965573;28;20458;-65
2021/05/16 08:07:24;;;;;;;16.05;9.05;;;13.90;99.90;;;;;;4968429;28;20090;-65
2021/05/16 08:09:50;;;;;;;12.98;8.65;;;13.70;99.90;;;;;;4969893;28;20113;-64
2021/05/16 08:12:16;;;;;;;11.50;7.70;;;13.50;99.90;;;;;;4965557;28;20027;-65
2021/05/16 08:14:41;;;;;;;11.98;8.73;;;13.40;99.90;;;;;;4965213;28;20038;-65
2021/05/16 08:17:07;;;;;;;9.70;7.53;;;13.50;99.90;;;;;;4965876;28;20379;-66
2021/05/16 08:19:33;;;;;;;11.50;8.32;;;13.80;99.90;;;;;;4967257;28;20049;-65
2021/05/16 08:21:59;;;;;;;15.30;9.20;;;14.00;99.90;;;;;;4966145;28;20444;-65
2021/05/16 08:24:25;;;;;;;13.65;9.95;;;13.90;99.90;;;;;;4967658;28;20053;-65
2021/05/16 08:26:51;;;;;;;12.38;8.95;;;13.90;99.90;;;;;;4964744;28;20120;-65
2021/05/16 08:29:16;;;;;;;14.88;9.38;;;14.10;99.90;;;;;;4967455;28;20076;-65
2021/05/16 08:31:42;;;;;;;13.40;8.43;;;14.10;99.90;;;;;;4968371;28;20037;-64
2021/05/16 08:34:08;;;;;;;13.23;9.30;;;14.00;99.90;;;;;;4967404;28;20426;-65
2021/05/16 08:36:40;;;;;;;13.93;9.57;;;14.10;99.90;;;;;;4967752;28;20026;-65
2021/05/16 08:39:07;;;;;;;14.35;8.85;;;14.10;99.90;;;;;;4966626;28;20085;-64
2021/05/16 08:41:36;;;;;;;14.85;9.70;;;14.30;99.90;;;;;;4966344;28;20037;-65
2021/05/16 08:44:04;;;;;;;12.38;8.82;;;14.30;99.90;;;;;;4967939;28;20027;-64
2021/05/16 08:46:30;;;;;;;14.20;10.05;;;13.90;99.90;;;;;;4968545;28;20522;-64
2021/05/16 08:48:56;;;;;;;13.93;9.27;;;13.80;99.90;;;;;;4966262;28;20038;-64
2021/05/16 08:51:22;;;;;;;12.32;9.10;;;13.80;99.90;;;;;;4964918;28;20026;-64
2021/05/16 08:53:48;;;;;;;15.30;9.32;;;13.60;99.90;;;;;;4964203;28;20066;-64
2021/05/16 08:56:14;;;;;;;15.25;9.90;;;13.50;99.90;;;;;;4966822;28;20173;-64
2021/05/16 08:58:40;;;;;;;15.75;9.82;;;13.40;99.90;;;;;;4967385;28;20038;-65
2021/05/16 09:01:21;;;;;;;15.65;9.13;;;13.50;99.90;;;;;;4964360;28;20022;-64
2021/05/16 09:03:48;;;;;;;12.43;9.30;;;13.70;99.90;;;;;;4963504;28;20045;-64
2021/05/16 09:06:15;;;;;;;18.02;8.95;;;13.60;99.90;;;;;;4966662;28;20077;-64
2021/05/16 09:08:42;;;;;;;13.40;8.70;;;13.50;99.90;;;;;;4968253;28;20030;-64
2021/05/16 09:11:07;;;;;;;17.15;8.80;;;13.50;99.90;;;;;;4970290;28;20027;-66
2021/05/16 09:13:36;;;;;;;11.90;8.55;;;13.50;99.90;;;;;;4959927;28;20385;-65
2021/05/16 09:16:01;;;;;;;14.13;9.25;;;13.50;99.90;;;;;;4953781;28;20050;-64
2021/05/16 09:18:47;;;;;;;14.43;9.57;;;13.50;99.90;;;;;;4956082;28;20650;-65
2021/05/16 09:21:30;;;;;;;12.07;8.85;;;13.30;99.90;;;;;;4954676;28;20030;-64
2021/05/16 09:24:01;;;;;;;23.08;9.25;;;13.30;99.90;;;;;;4954362;28;20174;-64
2021/05/16 09:26:28;;;;;;;13.80;8.02;;;13.30;99.90;;;;;;4956210;28;20101;-65
2021/05/16 09:28:54;;;;;;;12.20;8.60;;;13.40;99.90;;;;;;4955206;28;20145;-65
2021/05/16 09:31:36;;;;;;;13.43;8.52;;;13.60;99.90;;;;;;4953580;28;20462;-65
2021/05/16 09:34:03;;;;;;;13.88;9.05;;;13.90;99.90;;;;;;4954987;28;20031;-65
2021/05/16 09:36:33;;;;;;;16.98;9.18;;;14.00;99.90;;;;;;4955571;28;20449;-65
2021/05/16 09:39:19;;;;;;;16.73;8.77;;;14.10;99.90;;;;;;4959383;28;20061;-66
2021/05/16 09:41:56;;;;;;;14.88;9.40;;;14.10;99.90;;;;;;4957813;28;20382;-65
2021/05/16 09:44:39;;;;;;;13.70;8.65;;;14.00;99.90;;;;;;4959809;28;20093;-65
2021/05/16 09:47:21;;;;;;;12.40;8.18;;;14.10;99.90;;;;;;4959843;28;20445;-65
2021/05/16 09:49:52;;;;;;;14.15;8.45;;;14.20;99.90;;;;;;4960581;28;20075;-65
2021/05/16 09:52:24;;;;;;;14.32;8.60;;;14.20;99.90;;;;;;4959273;28;20266;-65
2021/05/16 09:55:01;;;;;;;12.85;8.40;;;14.10;99.90;;;;;;4951797;28;20034;-65
2021/05/16 09:57:32;;;;;;;12.25;8.75;;;14.00;99.90;;;;;;4960013;28;20533;-65
2021/05/16 09:59:59;;;;;;;15.25;9.25;;;13.90;99.90;;;;;;4954838;28;20556;-66
2021/05/16 10:02:27;;;;;;;15.50;9.82;;;13.90;99.90;;;;;;4956327;28;20117;-66
2021/05/16 10:05:01;;;;;;;15.45;9.18;;;14.10;99.90;;;;;;4985592;28;20045;-65
2021/05/16 10:07:28;;;;;;;13.80;9.02;;;14.20;99.90;;;;;;4961605;28;20545;-65
2021/05/16 10:09:56;;;;;;;17.02;9.30;;;14.20;99.90;;;;;;4959601;28;20030;-66
2021/05/16 10:12:23;;;;;;;14.98;9.35;;;14.20;99.90;;;;;;4960427;28;20041;-67
2021/05/16 10:14:57;;;;;;;14.82;9.73;;;14.20;99.90;;;;;;4960738;28;20073;-67
2021/05/16 10:17:24;;;;;;;13.32;9.75;;;14.20;99.90;;;;;;4961810;28;20115;-68
2021/05/16 10:19:50;;;;;;;13.77;9.88;;;14.10;99.90;;;;;;4961451;28;20026;-67
2021/05/16 10:22:17;;;;;;;19.15;9.73;;;14.20;99.90;;;;;;4961491;28;20037;-67
2021/05/16 10:24:49;;;;;;;16.23;9.90;;;14.50;99.90;;;;;;4956695;28;20697;-67
2021/05/16 10:27:25;;;;;;;11.32;8.45;;;14.60;99.90;;;;;;4959697;28;20053;-67
2021/05/16 10:29:54;;;;;;;12.55;8.13;;;14.60;99.90;;;;;;4959881;28;20093;-67
2021/05/16 10:32:38;;;;;;;14.27;9.23;;;14.50;99.90;;;;;;4967667;28;20093;-66
2021/05/16 10:35:05;;;;;;;17.17;8.60;;;14.50;99.90;;;;;;4963438;28;20747;-67
2021/05/16 10:37:53;;;;;;;14.15;8.30;;;14.40;99.90;;;;;;4966614;28;20042;-67
2021/05/16 10:40:25;;;;;;;13.25;8.38;;;14.40;99.90;;;;;;4967373;28;20039;-67
2021/05/16 10:42:59;;;;;;;11.63;7.95;;;14.50;99.90;;;;;;4967303;28;20069;-66
2021/05/16 10:45:35;;;;;;;13.63;9.10;;;14.70;99.90;;;;;;4961336;28;20033;-66
2021/05/16 10:48:20;;;;;;;14.00;8.77;;;15.00;99.90;;;;;;4966429;28;20030;-64
2021/05/16 10:50:58;;;;;;;16.85;9.70;;;15.20;99.90;;;;;;4963094;28;20058;-66
2021/05/16 10:53:31;;;;;;;15.43;10.05;;;15.10;99.90;;;;;;4963810;28;20048;-64
2021/05/16 10:56:11;;;;;;;16.90;10.05;;;15.10;99.90;;;;;;4966026;28;20039;-64
2021/05/16 10:58:43;;;;;;;14.05;9.35;;;15.10;99.90;;;;;;4965817;28;20034;-64
2021/05/16 11:01:13;;;;;;;13.23;8.70;;;15.30;99.90;;;;;;4966861;28;20038;-64
2021/05/16 11:03:46;;;;;;;13.27;9.35;;;15.40;99.90;;;;;;4967939;28;20035;-64
2021/05/16 11:06:13;;;;;;;14.27;9.68;;;15.50;99.90;;;;;;4966877;28;20050;-64
2021/05/16 11:08:39;;;;;;;13.48;9.48;;;15.40;99.90;;;;;;4966893;28;20110;-64
2021/05/16 11:11:27;;;;;;;11.93;8.05;;;15.20;99.90;;;;;;4963282;28;20590;-66
2021/05/16 11:13:53;;;;;;;14.95;9.25;;;15.10;99.90;;;;;;4967853;28;20570;-66
2021/05/16 11:16:19;;;;;;;11.90;8.18;;;15.10;99.90;;;;;;4958453;28;20031;-67
2021/05/16 11:18:44;;;;;;;12.65;7.72;;;15.30;99.90;;;;;;4962695;28;20104;-65
2021/05/16 11:21:10;;;;;;;11.90;7.82;;;15.50;99.90;;;;;;4963459;28;20031;-65
2021/05/16 11:23:38;;;;;;;13.40;8.90;;;15.70;99.90;;;;;;4960214;28;20054;-65
2021/05/16 11:26:10;;;;;;;11.55;8.45;;;16.00;99.90;;;;;;4971575;28;20038;-66
2021/05/16 11:28:45;;;;;;;12.25;8.52;;;16.00;99.90;;;;;;4965634;28;20093;-66
2021/05/16 11:31:18;;;;;;;12.48;8.27;;;15.80;99.90;;;;;;4968341;28;20176;-66
2021/05/16 11:33:46;;;;;;;13.93;9.70;;;15.90;99.90;;;;;;4969839;28;20407;-66
2021/05/16 11:36:14;;;;;;;13.05;8.88;;;15.90;99.90;;;;;;4965724;28;20558;-66
2021/05/16 11:38:46;;;;;;;15.77;9.30;;;16.00;99.90;;;;;;4970631;28;20035;-66
2021/05/16 11:41:44;;;;;;;13.85;9.32;;;16.10;99.90;;;;;;4970596;28;20022;-66
2021/05/16 11:44:22;;;;;;;14.23;9.10;;;16.30;99.90;;;;;;4964134;28;20034;-65
2021/05/16 11:46:48;;;;;;;13.38;9.00;;;16.60;99.90;;;;;;4967983;28;20030;-66
2021/05/16 11:49:25;;;;;;;16.05;9.15;;;16.80;99.90;;;;;;4966754;28;20033;-65
2021/05/16 11:51:51;;;;;;;14.35;9.43;;;16.90;99.90;;;;;;4957518;28;20035;-65
2021/05/16 11:54:17;;;;;;;20.98;10.98;;;17.00;99.90;;;;;;4964890;28;20053;-65
2021/05/16 11:56:48;;;;;;;16.67;10.48;;;17.00;99.90;;;;;;4964930;28;20541;-65
2021/05/16 11:59:14;;;;;;;13.90;8.90;;;17.20;99.90;;;;;;4968534;28;20373;-65
2021/05/16 12:01:42;;;;;;;15.35;9.70;;;17.50;99.90;;;;;;4963773;28;20031;-65
2021/05/16 12:04:16;;;;;;;13.18;9.43;;;17.80;99.90;;;;;;4965531;28;20446;-66
2021/05/16 12:06:43;;;;;;;14.75;10.27;;;18.10;99.90;;;;;;4967517;28;20026;-63
2021/05/16 12:09:20;;;;;;;16.88;10.07;;;18.20;99.90;;;;;;4968847;28;20379;-63
2021/05/16 12:11:48;;;;;;;15.15;10.10;;;18.20;99.90;;;;;;4966280;28;20477;-63
2021/05/16 12:14:16;;;;;;;16.02;9.77;;;18.30;99.90;;;;;;4959426;28;20121;-63
2021/05/16 12:16:58;;;;;;;16.00;10.30;;;18.30;99.90;;;;;;4968032;28;20540;-65
2021/05/16 12:19:32;;;;;;;14.63;10.20;;;18.20;99.90;;;;;;4967486;28;20053;-64
2021/05/16 12:22:01;;;;;;;13.95;10.32;;;17.80;99.90;;;;;;4965026;28;20023;-63
2021/05/16 12:24:30;;;;;;;14.93;9.97;;;17.50;99.90;;;;;;4963522;28;20051;-64
2021/05/16 12:26:57;;;;;;;15.00;10.25;;;17.90;99.90;;;;;;4955652;28;20607;-64
2021/05/16 12:29:23;;;;;;;14.00;9.63;;;18.20;99.90;;;;;;4954477;28;20326;-64
2021/05/16 12:31:50;;;;;;;16.40;10.30;;;18.60;99.90;;;;;;4951813;28;20027;-64
2021/05/16 12:34:16;;;;;;;15.40;10.43;;;18.80;99.90;;;;;;4953337;28;20141;-64
2021/05/16 12:36:53;;;;;;;12.75;8.73;;;18.70;99.90;;;;;;4954826;28;20042;-64
2021/05/16 12:39:37;;;;;;;13.55;9.48;;;18.30;99.90;;;;;;4957141;28;20041;-63
2021/05/16 12:42:21;;;;;;;14.50;10.35;;;18.00;99.90;;;;;;4978129;28;20058;-80
2021/05/16 12:44:47;;;;;;;15.15;10.30;;;17.80;99.90;;;;;;4964123;28;20034;-70